sensor_id;sensor_type;location;lat;lon;timestamp;P1;durP1;ratioP1;P2;durP2;ratioP2
41556;SDS011;27720;51.992;5.890;2023-10-13T10:46:15;12.60;;;5.63;;
41556;SDS011;27720;51.992;5.890;2023-10-13T10:48:50;8.55;;;4.65;;
41556;SDS011;27720;51.992;5.890;2023-10-13T10:51:26;13.80;;;6.22;;
41556;SDS011;27720;51.992;5.890;2023-10-13T10:56:23;11.18;;;5.38;;
41556;SDS011;27720;51.992;5.890;2023-10-13T10:58:59;15.95;;;6.57;;
41556;SDS011;27720;51.992;5.890;2023-10-13T11:01:28;12.10;;;5.22;;
41556;SDS011;27720;51.992;5.890;2023-10-13T11:04:12;8.18;;;4.53;;
41556;SDS011;27720;51.992;5.890;2023-10-13T11:06:51;12.63;;;4.53;;
41556;SDS011;27720;51.992;5.890;2023-10-13T11:14:31;13.80;;;4.38;;
41556;SDS011;27720;51.992;5.890;2023-10-13T11:16:57;11.18;;;5.95;;
41556;SDS011;27720;51.992;5.890;2023-10-13T11:19:36;10.68;;;4.93;;
41556;SDS011;27720;51.992;5.890;2023-10-13T11:22:12;15.43;;;4.05;;
41556;SDS011;27720;51.992;5.890;2023-10-13T11:25:19;7.43;;;4.03;;
41556;SDS011;27720;51.992;5.890;2023-10-13T11:27:55;12.85;;;4.50;;
41556;SDS011;27720;51.992;5.890;2023-10-13T11:30:22;11.35;;;4.53;;
41556;SDS011;27720;51.992;5.890;2023-10-13T11:33:01;13.02;;;4.80;;
41556;SDS011;27720;51.992;5.890;2023-10-13T11:35:40;11.30;;;5.15;;
41556;SDS011;27720;51.992;5.890;2023-10-13T11:38:25;11.00;;;4.43;;
41556;SDS011;27720;51.992;5.890;2023-10-13T11:40:59;10.07;;;4.30;;
41556;SDS011;27720;51.992;5.890;2023-10-13T11:46:07;13.63;;;7.03;;
41556;SDS011;27720;51.992;5.890;2023-10-13T11:48:37;10.32;;;5.43;;
41556;SDS011;27720;51.992;5.890;2023-10-13T11:51:03;10.88;;;3.85;;
41556;SDS011;27720;51.992;5.890;2023-10-13T11:56:00;10.35;;;4.88;;
41556;SDS011;27720;51.992;5.890;2023-10-13T11:58:35;10.48;;;4.63;;
41556;SDS011;27720;51.992;5.890;2023-10-13T12:01:01;7.93;;;4.38;;
41556;SDS011;27720;51.992;5.890;2023-10-13T12:03:48;9.60;;;4.45;;
41556;SDS011;27720;51.992;5.890;2023-10-13T12:06:34;14.80;;;4.65;;
41556;SDS011;27720;51.992;5.890;2023-10-13T12:09:12;6.80;;;3.95;;
41556;SDS011;27720;51.992;5.890;2023-10-13T12:11:44;9.02;;;4.57;;
41556;SDS011;27720;51.992;5.890;2023-10-13T12:14:14;13.32;;;5.68;;
41556;SDS011;27720;51.992;5.890;2023-10-13T12:17:05;10.00;;;3.92;;
41556;SDS011;27720;51.992;5.890;2023-10-13T12:19:35;7.22;;;3.97;;
41556;SDS011;27720;51.992;5.890;2023-10-13T12:22:04;8.63;;;3.70;;
41556;SDS011;27720;51.992;5.890;2023-10-13T12:24:33;7.90;;;3.83;;
41556;SDS011;27720;51.992;5.890;2023-10-13T12:27:02;14.40;;;4.88;;
41556;SDS011;27720;51.992;5.890;2023-10-13T12:29:44;8.07;;;4.30;;
41556;SDS011;27720;51.992;5.890;2023-10-13T12:32:17;7.45;;;4.00;;
41556;SDS011;27720;51.992;5.890;2023-10-13T12:34:55;8.73;;;3.83;;
41556;SDS011;27720;51.992;5.890;2023-10-13T12:37:25;11.00;;;4.28;;
41556;SDS011;27720;51.992;5.890;2023-10-13T12:40:01;9.93;;;4.22;;
41556;SDS011;27720;51.992;5.890;2023-10-13T12:42:46;9.68;;;4.65;;
41556;SDS011;27720;51.992;5.890;2023-10-13T12:45:31;8.50;;;4.00;;
41556;SDS011;27720;51.992;5.890;2023-10-13T12:48:15;7.10;;;4.18;;
41556;SDS011;27720;51.992;5.890;2023-10-13T12:51:02;11.57;;;4.05;;
41556;SDS011;27720;51.992;5.890;2023-10-13T12:53:52;13.88;;;3.97;;
41556;SDS011;27720;51.992;5.890;2023-10-13T12:56:21;12.38;;;4.72;;
41556;SDS011;27720;51.992;5.890;2023-10-13T12:58:54;9.95;;;3.97;;
41556;SDS011;27720;51.992;5.890;2023-10-13T13:01:24;12.15;;;3.78;;
41556;SDS011;27720;51.992;5.890;2023-10-13T13:03:57;11.98;;;4.50;;
41556;SDS011;27720;51.992;5.890;2023-10-13T13:06:25;7.65;;;4.03;;
41556;SDS011;27720;51.992;5.890;2023-10-13T13:08:52;9.65;;;3.88;;
41556;SDS011;27720;51.992;5.890;2023-10-13T13:11:18;10.23;;;3.92;;
41556;SDS011;27720;51.992;5.890;2023-10-13T13:13:44;18.55;;;5.72;;
41556;SDS011;27720;51.992;5.890;2023-10-13T13:16:16;11.77;;;3.63;;
41556;SDS011;27720;51.992;5.890;2023-10-13T13:18:44;5.28;;;2.95;;
41556;SDS011;27720;51.992;5.890;2023-10-13T13:21:10;8.68;;;3.97;;
41556;SDS011;27720;51.992;5.890;2023-10-13T13:23:38;10.32;;;4.03;;
41556;SDS011;27720;51.992;5.890;2023-10-13T13:26:05;10.18;;;3.88;;
41556;SDS011;27720;51.992;5.890;2023-10-13T13:28:45;10.13;;;3.47;;
41556;SDS011;27720;51.992;5.890;2023-10-13T13:31:15;10.18;;;3.92;;
41556;SDS011;27720;51.992;5.890;2023-10-13T13:33:50;7.65;;;3.75;;
41556;SDS011;27720;51.992;5.890;2023-10-13T13:36:16;11.63;;;4.03;;
41556;SDS011;27720;51.992;5.890;2023-10-13T13:38:42;12.70;;;3.70;;
41556;SDS011;27720;51.992;5.890;2023-10-13T13:41:12;15.20;;;4.40;;
41556;SDS011;27720;51.992;5.890;2023-10-13T13:43:42;8.85;;;3.28;;
41556;SDS011;27720;51.992;5.890;2023-10-13T13:46:17;10.73;;;3.75;;
41556;SDS011;27720;51.992;5.890;2023-10-13T13:48:44;12.93;;;3.80;;
41556;SDS011;27720;51.992;5.890;2023-10-13T13:51:13;9.70;;;4.07;;
41556;SDS011;27720;51.992;5.890;2023-10-13T13:53:43;12.95;;;3.60;;
41556;SDS011;27720;51.992;5.890;2023-10-13T13:56:13;7.68;;;3.35;;
41556;SDS011;27720;51.992;5.890;2023-10-13T13:58:44;13.20;;;4.38;;
41556;SDS011;27720;51.992;5.890;2023-10-13T14:01:15;9.35;;;3.67;;
41556;SDS011;27720;51.992;5.890;2023-10-13T14:03:44;12.77;;;4.05;;
41556;SDS011;27720;51.992;5.890;2023-10-13T14:06:15;12.13;;;3.83;;
41556;SDS011;27720;51.992;5.890;2023-10-13T14:08:48;7.68;;;2.70;;
41556;SDS011;27720;51.992;5.890;2023-10-13T14:11:20;13.63;;;2.90;;
41556;SDS011;27720;51.992;5.890;2023-10-13T14:13:46;13.15;;;4.00;;
41556;SDS011;27720;51.992;5.890;2023-10-13T14:16:15;10.45;;;3.53;;
41556;SDS011;27720;51.992;5.890;2023-10-13T14:18:43;11.82;;;4.00;;
41556;SDS011;27720;51.992;5.890;2023-10-13T14:21:10;8.32;;;3.58;;
41556;SDS011;27720;51.992;5.890;2023-10-13T14:23:35;10.77;;;3.65;;
41556;SDS011;27720;51.992;5.890;2023-10-13T14:26:01;5.57;;;2.85;;
41556;SDS011;27720;51.992;5.890;2023-10-13T14:28:27;6.72;;;2.60;;
41556;SDS011;27720;51.992;5.890;2023-10-13T14:31:04;11.10;;;2.97;;
41556;SDS011;27720;51.992;5.890;2023-10-13T14:33:35;12.65;;;3.25;;
41556;SDS011;27720;51.992;5.890;2023-10-13T14:36:02;6.13;;;3.47;;
41556;SDS011;27720;51.992;5.890;2023-10-13T14:38:30;7.82;;;3.60;;
41556;SDS011;27720;51.992;5.890;2023-10-13T14:40:56;8.40;;;2.95;;
41556;SDS011;27720;51.992;5.890;2023-10-13T14:43:23;9.35;;;3.83;;
41556;SDS011;27720;51.992;5.890;2023-10-13T14:45:53;8.07;;;2.50;;
41556;SDS011;27720;51.992;5.890;2023-10-13T14:48:19;8.75;;;3.45;;
41556;SDS011;27720;51.992;5.890;2023-10-13T14:50:44;9.93;;;3.42;;
41556;SDS011;27720;51.992;5.890;2023-10-13T14:53:10;8.38;;;2.80;;
41556;SDS011;27720;51.992;5.890;2023-10-13T14:55:36;8.60;;;3.17;;
41556;SDS011;27720;51.992;5.890;2023-10-13T14:58:05;6.03;;;3.15;;
41556;SDS011;27720;51.992;5.890;2023-10-13T15:00:33;7.05;;;2.97;;
41556;SDS011;27720;51.992;5.890;2023-10-13T15:03:02;7.60;;;2.60;;
41556;SDS011;27720;51.992;5.890;2023-10-13T15:05:31;6.47;;;3.08;;
41556;SDS011;27720;51.992;5.890;2023-10-13T15:08:00;7.95;;;2.75;;
41556;SDS011;27720;51.992;5.890;2023-10-13T15:10:28;7.75;;;2.58;;
41556;SDS011;27720;51.992;5.890;2023-10-13T15:12:54;8.68;;;2.97;;
41556;SDS011;27720;51.992;5.890;2023-10-13T15:15:20;6.75;;;2.72;;
41556;SDS011;27720;51.992;5.890;2023-10-13T15:17:45;7.93;;;2.85;;
41556;SDS011;27720;51.992;5.890;2023-10-13T15:20:11;5.90;;;2.72;;
41556;SDS011;27720;51.992;5.890;2023-10-13T15:22:43;6.50;;;3.00;;
41556;SDS011;27720;51.992;5.890;2023-10-13T15:25:12;5.80;;;3.17;;
41556;SDS011;27720;51.992;5.890;2023-10-13T15:27:56;6.45;;;2.55;;
41556;SDS011;27720;51.992;5.890;2023-10-13T15:30:28;6.20;;;3.47;;
41556;SDS011;27720;51.992;5.890;2023-10-13T15:33:13;11.45;;;2.78;;
41556;SDS011;27720;51.992;5.890;2023-10-13T15:35:39;5.43;;;2.35;;
41556;SDS011;27720;51.992;5.890;2023-10-13T15:38:08;7.78;;;3.00;;
41556;SDS011;27720;51.992;5.890;2023-10-13T15:40:40;6.25;;;2.40;;
41556;SDS011;27720;51.992;5.890;2023-10-13T15:43:10;5.47;;;2.95;;
41556;SDS011;27720;51.992;5.890;2023-10-13T15:45:36;5.00;;;2.50;;
41556;SDS011;27720;51.992;5.890;2023-10-13T15:48:04;7.53;;;2.40;;
41556;SDS011;27720;51.992;5.890;2023-10-13T15:50:35;9.27;;;2.05;;
41556;SDS011;27720;51.992;5.890;2023-10-13T15:53:07;4.18;;;2.38;;
41556;SDS011;27720;51.992;5.890;2023-10-13T15:58:04;7.70;;;3.03;;
41556;SDS011;27720;51.992;5.890;2023-10-13T16:00:35;5.03;;;2.50;;
41556;SDS011;27720;51.992;5.890;2023-10-13T16:03:02;3.63;;;2.00;;
41556;SDS011;27720;51.992;5.890;2023-10-13T16:05:35;3.88;;;1.95;;
41556;SDS011;27720;51.992;5.890;2023-10-13T16:08:02;6.00;;;2.13;;
41556;SDS011;27720;51.992;5.890;2023-10-13T16:10:29;7.50;;;2.60;;
41556;SDS011;27720;51.992;5.890;2023-10-13T16:12:55;5.13;;;2.03;;
41556;SDS011;27720;51.992;5.890;2023-10-13T16:15:23;8.60;;;2.65;;
41556;SDS011;27720;51.992;5.890;2023-10-13T16:17:49;4.60;;;2.35;;
41556;SDS011;27720;51.992;5.890;2023-10-13T16:20:18;5.57;;;2.20;;
41556;SDS011;27720;51.992;5.890;2023-10-13T16:22:46;5.20;;;1.50;;
41556;SDS011;27720;51.992;5.890;2023-10-13T16:25:13;5.90;;;2.50;;
41556;SDS011;27720;51.992;5.890;2023-10-13T16:27:40;3.90;;;2.08;;
41556;SDS011;27720;51.992;5.890;2023-10-13T16:32:41;9.20;;;2.90;;
41556;SDS011;27720;51.992;5.890;2023-10-13T16:35:17;8.48;;;2.78;;
41556;SDS011;27720;51.992;5.890;2023-10-13T16:37:46;7.22;;;2.47;;
41556;SDS011;27720;51.992;5.890;2023-10-13T16:40:16;7.45;;;2.92;;
41556;SDS011;27720;51.992;5.890;2023-10-13T16:42:48;11.90;;;3.28;;
41556;SDS011;27720;51.992;5.890;2023-10-13T16:45:17;9.63;;;3.53;;
41556;SDS011;27720;51.992;5.890;2023-10-13T16:47:51;5.53;;;2.70;;
41556;SDS011;27720;51.992;5.890;2023-10-13T16:50:20;6.97;;;4.10;;
41556;SDS011;27720;51.992;5.890;2023-10-13T16:52:47;5.28;;;2.97;;
41556;SDS011;27720;51.992;5.890;2023-10-13T16:55:13;6.65;;;2.63;;
41556;SDS011;27720;51.992;5.890;2023-10-13T16:57:43;6.83;;;3.40;;
41556;SDS011;27720;51.992;5.890;2023-10-13T17:00:09;4.40;;;2.30;;
41556;SDS011;27720;51.992;5.890;2023-10-13T17:02:38;4.05;;;2.30;;
41556;SDS011;27720;51.992;5.890;2023-10-13T17:05:07;7.18;;;2.95;;
41556;SDS011;27720;51.992;5.890;2023-10-13T17:07:34;6.93;;;2.70;;
41556;SDS011;27720;51.992;5.890;2023-10-13T17:10:00;7.63;;;3.00;;
41556;SDS011;27720;51.992;5.890;2023-10-13T17:12:26;9.88;;;3.08;;
41556;SDS011;27720;51.992;5.890;2023-10-13T17:14:54;7.57;;;3.30;;
41556;SDS011;27720;51.992;5.890;2023-10-13T17:17:23;4.50;;;2.67;;
41556;SDS011;27720;51.992;5.890;2023-10-13T17:19:49;6.57;;;2.83;;
41556;SDS011;27720;51.992;5.890;2023-10-13T17:22:15;3.28;;;2.42;;
41556;SDS011;27720;51.992;5.890;2023-10-13T17:24:42;6.35;;;2.53;;
41556;SDS011;27720;51.992;5.890;2023-10-13T17:27:07;7.45;;;3.08;;
41556;SDS011;27720;51.992;5.890;2023-10-13T17:29:34;6.28;;;3.17;;
41556;SDS011;27720;51.992;5.890;2023-10-13T17:32:01;8.93;;;3.63;;
41556;SDS011;27720;51.992;5.890;2023-10-13T17:34:33;5.32;;;3.30;;
41556;SDS011;27720;51.992;5.890;2023-10-13T17:36:59;10.25;;;3.75;;
41556;SDS011;27720;51.992;5.890;2023-10-13T17:39:26;5.60;;;2.92;;
41556;SDS011;27720;51.992;5.890;2023-10-13T17:41:52;7.32;;;3.08;;
41556;SDS011;27720;51.992;5.890;2023-10-13T17:44:19;11.18;;;3.95;;
41556;SDS011;27720;51.992;5.890;2023-10-13T17:46:46;9.60;;;3.65;;
41556;SDS011;27720;51.992;5.890;2023-10-13T17:49:12;7.95;;;3.83;;
41556;SDS011;27720;51.992;5.890;2023-10-13T17:51:38;9.30;;;4.07;;
41556;SDS011;27720;51.992;5.890;2023-10-13T17:54:04;7.50;;;4.10;;
41556;SDS011;27720;51.992;5.890;2023-10-13T17:56:30;13.50;;;5.78;;
41556;SDS011;27720;51.992;5.890;2023-10-13T17:58:56;11.38;;;4.85;;
41556;SDS011;27720;51.992;5.890;2023-10-13T18:01:22;10.35;;;5.00;;
41556;SDS011;27720;51.992;5.890;2023-10-13T18:03:51;14.50;;;5.97;;
41556;SDS011;27720;51.992;5.890;2023-10-13T18:08:45;8.93;;;5.00;;
41556;SDS011;27720;51.992;5.890;2023-10-13T18:13:41;13.32;;;4.10;;
41556;SDS011;27720;51.992;5.890;2023-10-13T18:18:39;13.73;;;4.65;;
41556;SDS011;27720;51.992;5.890;2023-10-13T18:21:05;9.07;;;4.88;;
41556;SDS011;27720;51.992;5.890;2023-10-13T18:23:36;10.88;;;4.93;;
41556;SDS011;27720;51.992;5.890;2023-10-13T18:26:05;13.35;;;7.00;;
41556;SDS011;27720;51.992;5.890;2023-10-13T18:28:31;12.00;;;4.55;;
41556;SDS011;27720;51.992;5.890;2023-10-13T18:31:01;9.40;;;4.00;;
41556;SDS011;27720;51.992;5.890;2023-10-13T18:33:30;8.75;;;3.83;;
41556;SDS011;27720;51.992;5.890;2023-10-13T18:36:15;9.15;;;4.05;;
41556;SDS011;27720;51.992;5.890;2023-10-13T18:38:43;8.75;;;3.85;;
41556;SDS011;27720;51.992;5.890;2023-10-13T18:41:10;8.15;;;4.25;;
41556;SDS011;27720;51.992;5.890;2023-10-13T18:43:43;10.50;;;4.53;;
41556;SDS011;27720;51.992;5.890;2023-10-13T18:46:09;10.07;;;3.95;;
41556;SDS011;27720;51.992;5.890;2023-10-13T18:48:36;7.95;;;3.95;;
41556;SDS011;27720;51.992;5.890;2023-10-13T18:51:03;9.63;;;4.10;;
41556;SDS011;27720;51.992;5.890;2023-10-13T18:53:57;6.93;;;3.47;;
41556;SDS011;27720;51.992;5.890;2023-10-13T18:56:26;9.23;;;4.88;;
41556;SDS011;27720;51.992;5.890;2023-10-13T18:58:53;10.57;;;4.03;;
41556;SDS011;27720;51.992;5.890;2023-10-13T19:01:19;7.35;;;4.57;;
41556;SDS011;27720;51.992;5.890;2023-10-13T19:03:50;10.98;;;5.45;;
41556;SDS011;27720;51.992;5.890;2023-10-13T19:06:21;9.57;;;4.63;;
41556;SDS011;27720;51.992;5.890;2023-10-13T19:08:47;7.93;;;4.53;;
41556;SDS011;27720;51.992;5.890;2023-10-13T19:11:17;12.25;;;5.22;;
41556;SDS011;27720;51.992;5.890;2023-10-13T19:13:44;13.10;;;6.03;;
41556;SDS011;27720;51.992;5.890;2023-10-13T19:16:13;8.43;;;4.45;;
41556;SDS011;27720;51.992;5.890;2023-10-13T19:18:39;12.10;;;6.72;;
41556;SDS011;27720;51.992;5.890;2023-10-13T19:21:06;11.05;;;5.22;;
41556;SDS011;27720;51.992;5.890;2023-10-13T19:23:51;12.23;;;5.03;;
41556;SDS011;27720;51.992;5.890;2023-10-13T19:26:25;8.70;;;4.50;;
41556;SDS011;27720;51.992;5.890;2023-10-13T19:28:56;9.60;;;5.32;;
41556;SDS011;27720;51.992;5.890;2023-10-13T19:31:24;10.27;;;4.07;;
41556;SDS011;27720;51.992;5.890;2023-10-13T19:33:57;9.73;;;4.80;;
41556;SDS011;27720;51.992;5.890;2023-10-13T19:36:30;10.27;;;5.15;;
41556;SDS011;27720;51.992;5.890;2023-10-13T19:39:00;7.82;;;3.67;;
41556;SDS011;27720;51.992;5.890;2023-10-13T19:41:30;8.77;;;4.72;;
41556;SDS011;27720;51.992;5.890;2023-10-13T19:43:57;13.65;;;5.97;;
41556;SDS011;27720;51.992;5.890;2023-10-13T19:46:28;10.68;;;5.35;;
41556;SDS011;27720;51.992;5.890;2023-10-13T19:48:55;13.60;;;6.53;;
41556;SDS011;27720;51.992;5.890;2023-10-13T19:51:28;9.85;;;4.65;;
41556;SDS011;27720;51.992;5.890;2023-10-13T19:53:59;9.30;;;4.65;;
41556;SDS011;27720;51.992;5.890;2023-10-13T19:56:27;10.85;;;5.18;;
41556;SDS011;27720;51.992;5.890;2023-10-13T19:58:53;10.73;;;4.68;;
41556;SDS011;27720;51.992;5.890;2023-10-13T20:01:23;7.35;;;3.90;;
41556;SDS011;27720;51.992;5.890;2023-10-13T20:03:54;7.32;;;4.32;;
41556;SDS011;27720;51.992;5.890;2023-10-13T20:06:27;10.32;;;5.97;;
41556;SDS011;27720;51.992;5.890;2023-10-13T20:08:54;9.90;;;5.15;;
41556;SDS011;27720;51.992;5.890;2023-10-13T20:11:23;11.50;;;5.03;;
41556;SDS011;27720;51.992;5.890;2023-10-13T20:13:50;7.90;;;4.15;;
41556;SDS011;27720;51.992;5.890;2023-10-13T20:16:17;9.27;;;4.90;;
41556;SDS011;27720;51.992;5.890;2023-10-13T20:18:48;9.77;;;4.85;;
41556;SDS011;27720;51.992;5.890;2023-10-13T20:21:19;6.80;;;4.10;;
41556;SDS011;27720;51.992;5.890;2023-10-13T20:23:49;9.50;;;4.20;;
41556;SDS011;27720;51.992;5.890;2023-10-13T20:26:24;9.40;;;5.03;;
41556;SDS011;27720;51.992;5.890;2023-10-13T20:28:54;6.97;;;4.38;;
41556;SDS011;27720;51.992;5.890;2023-10-13T20:31:21;6.85;;;3.97;;
41556;SDS011;27720;51.992;5.890;2023-10-13T20:33:46;9.75;;;4.00;;
41556;SDS011;27720;51.992;5.890;2023-10-13T20:36:12;8.93;;;4.53;;
41556;SDS011;27720;51.992;5.890;2023-10-13T20:41:09;8.43;;;3.70;;
41556;SDS011;27720;51.992;5.890;2023-10-13T20:43:42;7.55;;;3.90;;
41556;SDS011;27720;51.992;5.890;2023-10-13T20:46:16;7.97;;;4.75;;
41556;SDS011;27720;51.992;5.890;2023-10-13T20:48:41;6.45;;;3.60;;
41556;SDS011;27720;51.992;5.890;2023-10-13T20:51:08;7.82;;;4.25;;
41556;SDS011;27720;51.992;5.890;2023-10-13T20:53:38;8.57;;;4.28;;
41556;SDS011;27720;51.992;5.890;2023-10-13T20:56:08;9.38;;;4.03;;
41556;SDS011;27720;51.992;5.890;2023-10-13T20:58:39;6.95;;;4.03;;
41556;SDS011;27720;51.992;5.890;2023-10-13T21:01:10;9.27;;;4.90;;
41556;SDS011;27720;51.992;5.890;2023-10-13T21:03:36;9.27;;;4.43;;
41556;SDS011;27720;51.992;5.890;2023-10-13T21:06:03;9.95;;;4.15;;
41556;SDS011;27720;51.992;5.890;2023-10-13T21:08:39;8.32;;;3.33;;
41556;SDS011;27720;51.992;5.890;2023-10-13T21:11:07;5.05;;;3.13;;
41556;SDS011;27720;51.992;5.890;2023-10-13T21:13:33;5.00;;;2.40;;
41556;SDS011;27720;51.992;5.890;2023-10-13T21:16:00;4.35;;;2.10;;
41556;SDS011;27720;51.992;5.890;2023-10-13T21:18:26;6.72;;;2.70;;
41556;SDS011;27720;51.992;5.890;2023-10-13T21:21:14;6.18;;;2.35;;
41556;SDS011;27720;51.992;5.890;2023-10-13T21:23:48;2.93;;;1.50;;
41556;SDS011;27720;51.992;5.890;2023-10-13T21:26:24;6.00;;;1.97;;
41556;SDS011;27720;51.992;5.890;2023-10-13T21:28:54;7.07;;;1.38;;
41556;SDS011;27720;51.992;5.890;2023-10-13T21:31:23;3.70;;;1.85;;
41556;SDS011;27720;51.992;5.890;2023-10-13T21:33:50;2.42;;;1.70;;
41556;SDS011;27720;51.992;5.890;2023-10-13T21:36:21;5.43;;;1.95;;
41556;SDS011;27720;51.992;5.890;2023-10-13T21:38:51;6.35;;;2.20;;
41556;SDS011;27720;51.992;5.890;2023-10-13T21:41:20;6.40;;;3.17;;
41556;SDS011;27720;51.992;5.890;2023-10-13T21:43:47;7.93;;;3.65;;
41556;SDS011;27720;51.992;5.890;2023-10-13T21:46:21;10.10;;;5.05;;
41556;SDS011;27720;51.992;5.890;2023-10-13T21:48:48;16.95;;;5.32;;
41556;SDS011;27720;51.992;5.890;2023-10-13T21:51:15;8.50;;;5.00;;
41556;SDS011;27720;51.992;5.890;2023-10-13T21:53:44;11.60;;;5.43;;
41556;SDS011;27720;51.992;5.890;2023-10-13T21:56:14;12.90;;;6.05;;
41556;SDS011;27720;51.992;5.890;2023-10-13T21:58:41;11.00;;;5.30;;
41556;SDS011;27720;51.992;5.890;2023-10-13T22:01:11;10.27;;;4.93;;
41556;SDS011;27720;51.992;5.890;2023-10-13T22:04:07;11.15;;;5.28;;
41556;SDS011;27720;51.992;5.890;2023-10-13T22:06:39;11.85;;;5.05;;
41556;SDS011;27720;51.992;5.890;2023-10-13T22:09:06;9.35;;;3.85;;
41556;SDS011;27720;51.992;5.890;2023-10-13T22:11:41;10.05;;;3.08;;
41556;SDS011;27720;51.992;5.890;2023-10-13T22:14:07;8.93;;;2.95;;
41556;SDS011;27720;51.992;5.890;2023-10-13T22:16:37;7.95;;;2.30;;
41556;SDS011;27720;51.992;5.890;2023-10-13T22:19:03;4.40;;;2.20;;
41556;SDS011;27720;51.992;5.890;2023-10-13T22:21:29;3.97;;;2.10;;
41556;SDS011;27720;51.992;5.890;2023-10-13T22:23:55;3.92;;;1.60;;
41556;SDS011;27720;51.992;5.890;2023-10-13T22:26:25;6.00;;;2.08;;
41556;SDS011;27720;51.992;5.890;2023-10-13T22:28:51;2.30;;;1.80;;
41556;SDS011;27720;51.992;5.890;2023-10-13T22:31:18;4.05;;;1.50;;
41556;SDS011;27720;51.992;5.890;2023-10-13T22:36:14;7.88;;;2.03;;
41556;SDS011;27720;51.992;5.890;2023-10-13T22:38:49;6.43;;;1.42;;
41556;SDS011;27720;51.992;5.890;2023-10-13T22:41:24;7.93;;;1.92;;
41556;SDS011;27720;51.992;5.890;2023-10-13T22:46:19;5.13;;;1.20;;
41556;SDS011;27720;51.992;5.890;2023-10-13T22:48:46;9.73;;;1.63;;
41556;SDS011;27720;51.992;5.890;2023-10-13T22:51:12;8.10;;;2.13;;
41556;SDS011;27720;51.992;5.890;2023-10-13T22:53:38;6.13;;;1.27;;
41556;SDS011;27720;51.992;5.890;2023-10-13T22:56:04;3.75;;;0.80;;
41556;SDS011;27720;51.992;5.890;2023-10-13T22:58:33;2.47;;;1.05;;
41556;SDS011;27720;51.992;5.890;2023-10-13T23:00:59;2.03;;;0.52;;
41556;SDS011;27720;51.992;5.890;2023-10-13T23:03:28;2.40;;;0.50;;
41556;SDS011;27720;51.992;5.890;2023-10-13T23:06:00;1.95;;;0.30;;
41556;SDS011;27720;51.992;5.890;2023-10-13T23:08:35;3.35;;;0.52;;
41556;SDS011;27720;51.992;5.890;2023-10-13T23:11:06;0.33;;;0.30;;
41556;SDS011;27720;51.992;5.890;2023-10-13T23:13:47;1.17;;;0.80;;
41556;SDS011;27720;51.992;5.890;2023-10-13T23:16:20;1.00;;;0.30;;
41556;SDS011;27720;51.992;5.890;2023-10-13T23:18:47;1.45;;;0.40;;
41556;SDS011;27720;51.992;5.890;2023-10-13T23:21:23;0.70;;;0.30;;
41556;SDS011;27720;51.992;5.890;2023-10-13T23:23:52;2.75;;;0.40;;
41556;SDS011;27720;51.992;5.890;2023-10-13T23:26:19;0.28;;;0.20;;
41556;SDS011;27720;51.992;5.890;2023-10-13T23:28:46;0.55;;;0.30;;
41556;SDS011;27720;51.992;5.890;2023-10-13T23:31:16;1.77;;;0.30;;
41556;SDS011;27720;51.992;5.890;2023-10-13T23:33:43;0.50;;;0.20;;
41556;SDS011;27720;51.992;5.890;2023-10-13T23:36:09;1.30;;;0.28;;
41556;SDS011;27720;51.992;5.890;2023-10-13T23:38:38;0.50;;;0.43;;
41556;SDS011;27720;51.992;5.890;2023-10-13T23:41:04;0.63;;;0.30;;
41556;SDS011;27720;51.992;5.890;2023-10-13T23:43:37;1.98;;;0.50;;
41556;SDS011;27720;51.992;5.890;2023-10-13T23:46:10;1.77;;;0.40;;
41556;SDS011;27720;51.992;5.890;2023-10-13T23:48:37;0.70;;;0.20;;
41556;SDS011;27720;51.992;5.890;2023-10-13T23:51:04;0.22;;;0.20;;
41556;SDS011;27720;51.992;5.890;2023-10-13T23:53:34;0.20;;;0.20;;
41556;SDS011;27720;51.992;5.890;2023-10-13T23:56:10;1.02;;;0.30;;
41556;SDS011;27720;51.992;5.890;2023-10-13T23:58:54;7.13;;;0.35;;
